Time;durP1;ratioP1;P1;durP2;ratioP2;P2;SDS_P1;SDS_P2;PMS_P1;PMS_P2;Temp;Humidity;BMP_temperature;BMP_pressure;BME280_temperature;BME280_humidity;BME280_pressure;Samples;Min_cycle;Max_cycle;Signal;HPM_P1;HPM_P2
2022/08/22 00:00:34;;;;;;;7.72;6.93;;;;;;;-142.91;100.00;56616.03;5026766;28;20234;-67
2022/08/22 00:03:19;;;;;;;8.70;7.88;;;;;;;-142.91;100.00;56616.03;5024842;28;20214;-68
2022/08/22 00:06:03;;;;;;;7.88;7.25;;;;;;;-142.91;100.00;56616.03;5026937;28;20230;-67
2022/08/22 00:08:38;;;;;;;8.23;7.63;;;;;;;-142.91;100.00;56616.03;5026531;28;20279;-68
2022/08/22 00:11:16;;;;;;;9.00;8.30;;;;;;;-142.91;100.00;56616.03;5019350;28;20225;-67
2022/08/22 00:13:50;;;;;;;8.43;7.80;;;;;;;-142.91;100.00;56616.03;5010331;28;20248;-67
2022/08/22 00:16:23;;;;;;;11.13;7.47;;;;;;;-142.91;100.00;56616.03;5011493;28;20201;-66
2022/08/22 00:19:03;;;;;;;9.25;7.97;;;;;;;-142.91;100.00;56616.03;5018344;28;20214;-68
2022/08/22 00:21:35;;;;;;;8.90;8.05;;;;;;;-142.91;100.00;56616.03;5025015;28;21469;-68
2022/08/22 00:24:14;;;;;;;10.45;9.27;;;;;;;-142.91;100.00;56616.03;5024477;28;21024;-69
2022/08/22 00:26:48;;;;;;;13.23;11.93;;;;;;;-142.91;100.00;56616.03;5025270;28;20647;-69
2022/08/22 00:29:19;;;;;;;13.15;11.85;;;;;;;-142.91;100.00;56616.03;5023348;28;20202;-68
2022/08/22 00:31:51;;;;;;;12.40;11.15;;;;;;;-142.91;100.00;56616.03;5019701;28;20279;-68
2022/08/22 00:34:25;;;;;;;11.95;10.85;;;;;;;-142.91;100.00;56616.03;5023802;28;20202;-68
2022/08/22 00:37:02;;;;;;;11.88;10.88;;;;;;;-142.91;100.00;56616.03;5025785;28;22216;-66
2022/08/22 00:39:33;;;;;;;10.30;9.40;;;;;;;-142.91;100.00;56616.03;5026202;28;20297;-67
2022/08/22 00:42:27;;;;;;;11.57;10.60;;;;;;;-142.91;100.00;56616.03;5025354;28;20210;-67
2022/08/22 00:45:21;;;;;;;12.48;11.35;;;;;;;-142.91;100.00;56616.03;5026086;28;20931;-67
2022/08/22 00:48:12;;;;;;;11.82;10.45;;;;;;;-142.91;100.00;56616.03;5026202;28;20238;-67
2022/08/22 00:51:01;;;;;;;11.63;10.52;;;;;;;-142.91;100.00;56616.03;5027961;28;20247;-68
2022/08/22 00:53:42;;;;;;;11.68;10.65;;;;;;;-142.91;100.00;56616.03;5028312;28;20777;-67
2022/08/22 00:56:35;;;;;;;12.13;10.93;;;;;;;-142.91;100.00;56616.03;5029621;28;20203;-68
2022/08/22 00:59:32;;;;;;;12.40;11.30;;;;;;;-142.91;100.00;56616.03;4992930;28;21894;-69
2022/08/22 01:02:10;;;;;;;12.38;10.15;;;;;;;-142.91;100.00;56616.03;5025874;28;20889;-68
2022/08/22 01:04:59;;;;;;;10.80;9.93;;;;;;;-142.91;100.00;56616.03;5030005;28;20577;-67
2022/08/22 01:07:40;;;;;;;11.77;10.68;;;;;;;-142.91;100.00;56616.03;5028432;28;20764;-67
2022/08/22 01:10:29;;;;;;;17.52;13.70;;;;;;;-142.91;100.00;56616.03;5026385;28;20234;-68
2022/08/22 01:13:14;;;;;;;12.57;11.43;;;;;;;-142.91;100.00;56616.03;5026072;28;20833;-67
2022/08/22 01:15:44;;;;;;;12.27;11.18;;;;;;;-142.91;100.00;56616.03;5027713;28;20202;-67
2022/08/22 01:18:40;;;;;;;13.10;11.80;;;;;;;-142.91;100.00;56616.03;5028848;28;20243;-68
2022/08/22 01:21:54;;;;;;;12.40;11.20;;;;;;;-142.91;100.00;56616.03;5029576;28;20202;-68
2022/08/22 01:25:19;;;;;;;14.13;12.10;;;;;;;-142.91;100.00;56616.03;4987860;28;20625;-68
2022/08/22 01:28:28;;;;;;;12.32;11.20;;;;;;;-142.91;100.00;56616.03;4988596;28;20200;-68
2022/08/22 01:31:36;;;;;;;15.70;12.50;;;;;;;-142.91;100.00;56616.03;4981633;28;20634;-68
2022/08/22 01:34:36;;;;;;;12.07;11.07;;;;;;;-142.91;100.00;56616.03;4989787;28;20214;-68
2022/08/22 01:37:40;;;;;;;13.20;11.95;;;;;;;-142.91;100.00;56616.03;4986371;28;20257;-69
2022/08/22 01:41:01;;;;;;;12.27;11.32;;;;;;;-142.91;100.00;56616.03;4990046;28;20207;-67
2022/08/22 01:43:50;;;;;;;13.20;12.07;;;;;;;-142.91;100.00;56616.03;4989032;28;20240;-68
2022/08/22 01:46:35;;;;;;;13.73;12.52;;;;;;;-142.91;100.00;56616.03;4988990;28;20286;-68
2022/08/22 01:49:11;;;;;;;15.32;12.32;;;;;;;-142.91;100.00;56616.03;4988423;28;20261;-69
2022/08/22 01:51:46;;;;;;;14.05;12.57;;;;;;;-142.91;100.00;56616.03;4987090;28;20317;-69
2022/08/22 01:54:23;;;;;;;13.70;12.27;;;;;;;-142.91;100.00;56616.03;4987880;28;20269;-69
2022/08/22 01:56:50;;;;;;;16.23;12.13;;;;;;;-142.91;100.00;56616.03;4989851;28;20293;-67
2022/08/22 01:59:24;;;;;;;14.15;12.60;;;;;;;-142.91;100.00;56616.03;4988694;28;20211;-68
2022/08/22 02:02:00;;;;;;;15.68;12.43;;;;;;;-142.91;100.00;56616.03;4986897;28;20204;-67
2022/08/22 02:04:37;;;;;;;14.50;12.82;;;;;;;-142.91;100.00;56616.03;4989112;28;20214;-67
2022/08/22 02:07:14;;;;;;;13.02;11.93;;;;;;;-142.91;100.00;56616.03;4992147;28;20665;-66
2022/08/22 02:09:48;;;;;;;14.18;12.88;;;;;;;-142.91;100.00;56616.03;4991262;28;20234;-67
2022/08/22 02:12:30;;;;;;;14.18;12.13;;;;;;;-142.91;100.00;56616.03;4989765;28;21225;-69
2022/08/22 02:15:07;;;;;;;14.57;13.18;;;;;;;-142.91;100.00;56616.03;4990646;28;20204;-68
2022/08/22 02:17:48;;;;;;;13.93;12.63;;;;;;;-142.91;100.00;56616.03;4990978;28;20207;-69
2022/08/22 02:20:23;;;;;;;15.45;13.13;;;;;;;-142.91;100.00;56616.03;4986585;28;20198;-69
2022/08/22 02:22:58;;;;;;;13.98;12.52;;;;;;;-142.91;100.00;56616.03;5016135;28;20670;-67
2022/08/22 02:25:28;;;;;;;14.23;12.45;;;;;;;-142.91;100.00;56616.03;5029541;28;20210;-68
2022/08/22 02:28:05;;;;;;;15.77;13.30;;;;;;;-142.91;100.00;56616.03;5029199;28;20706;-68
2022/08/22 02:30:47;;;;;;;13.50;12.30;;;;;;;-142.91;100.00;56616.03;5029392;28;20209;-68
2022/08/22 02:33:25;;;;;;;15.35;12.95;;;;;;;-142.91;100.00;56616.03;5029051;28;20256;-68
2022/08/22 02:35:59;;;;;;;12.95;11.68;;;;;;;-142.91;100.00;56616.03;5030002;28;20811;-68
2022/08/22 02:38:34;;;;;;;14.98;12.95;;;;;;;-142.91;100.00;56616.03;5028432;28;20213;-68
2022/08/22 02:41:13;;;;;;;14.73;12.88;;;;;;;-142.91;100.00;56616.03;5028692;28;20193;-68
2022/08/22 02:43:46;;;;;;;15.38;13.40;;;;;;;-142.91;100.00;56616.03;5028771;28;20725;-68
2022/08/22 02:46:25;;;;;;;14.40;13.00;;;;;;;-142.91;100.00;56616.03;5028713;28;20723;-67
2022/08/22 02:49:02;;;;;;;15.07;13.23;;;;;;;-142.91;100.00;56616.03;5029748;28;20202;-66
2022/08/22 02:51:36;;;;;;;14.63;13.18;;;;;;;-142.91;100.00;56616.03;5029214;28;20287;-67
2022/08/22 02:54:15;;;;;;;15.20;13.50;;;;;;;-142.91;100.00;56616.03;5029838;28;20228;-66
2022/08/22 02:56:49;;;;;;;14.10;12.80;;;;;;;-142.91;100.00;56616.03;5030221;28;20210;-66
2022/08/22 02:59:29;;;;;;;14.57;12.88;;;;;;;-142.91;100.00;56616.03;5027608;28;20730;-66
2022/08/22 03:01:56;;;;;;;15.80;14.20;;;;;;;-142.91;100.00;56616.03;5048098;22;20234;-66
2022/08/22 03:04:45;;;;;;;14.88;13.27;;;;;;;-142.91;100.00;56616.03;5028442;28;20255;-67
2022/08/22 03:07:23;;;;;;;14.70;13.20;;;;;;;-142.91;100.00;56616.03;5028613;28;20226;-66
2022/08/22 03:09:59;;;;;;;15.40;13.75;;;;;;;-142.91;100.00;56616.03;5027826;28;20267;-67
2022/08/22 03:12:33;;;;;;;14.50;13.10;;;;;;;-142.91;100.00;56616.03;5027126;28;20226;-66
2022/08/22 03:15:07;;;;;;;15.57;13.95;;;;;;;-142.91;100.00;56616.03;5029395;28;20691;-66
2022/08/22 03:17:40;;;;;;;16.90;15.13;;;;;;;-142.91;100.00;56616.03;5030291;28;20299;-67
2022/08/22 03:20:13;;;;;;;19.67;15.45;;;;;;;-142.91;100.00;56616.03;5028107;28;20362;-66
2022/08/22 03:22:50;;;;;;;16.80;15.20;;;;;;;-142.91;100.00;56616.03;5027981;28;20202;-66
2022/08/22 03:25:29;;;;;;;21.42;17.35;;;;;;;-142.91;100.00;56616.03;5028587;28;20230;-67
2022/08/22 03:28:01;;;;;;;17.33;15.52;;;;;;;-142.91;100.00;56616.03;5028548;28;20252;-68
2022/08/22 03:30:36;;;;;;;16.25;14.68;;;;;;;-142.91;100.00;56616.03;5027751;28;20227;-68
2022/08/22 03:33:17;;;;;;;17.55;15.15;;;;;;;-142.91;100.00;56616.03;5028057;28;20229;-68
2022/08/22 03:36:06;;;;;;;17.08;14.13;;;;;;;-142.91;100.00;56616.03;5029041;28;21403;-68
2022/08/22 03:38:47;;;;;;;17.02;14.25;;;;;;;-142.91;100.00;56616.03;5026561;28;20206;-68
2022/08/22 03:41:41;;;;;;;14.82;13.13;;;;;;;-142.91;100.00;56616.03;5026534;28;20771;-67
2022/08/22 03:44:37;;;;;;;17.25;13.52;;;;;;;-142.91;100.00;56616.03;5027748;28;20214;-67
2022/08/22 03:47:45;;;;;;;17.13;13.20;;;;;;;-142.91;100.00;56616.03;5025685;28;20624;-67
2022/08/22 03:50:49;;;;;;;15.40;13.80;;;;;;;-142.91;100.00;56616.03;4946133;28;20279;-67
2022/08/22 03:53:49;;;;;;;15.02;12.82;;;;;;;-142.91;100.00;56616.03;4949158;28;20224;-67
2022/08/22 03:56:54;;;;;;;14.55;12.80;;;;;;;-142.91;100.00;56616.03;5002089;28;20202;-68
2022/08/22 03:59:58;;;;;;;14.90;12.52;;;;;;;-142.91;100.00;56616.03;5029963;28;20206;-68
2022/08/22 04:02:52;;;;;;;16.90;13.88;;;;;;;-142.91;100.00;56616.03;5007665;28;20719;-68
2022/08/22 04:05:53;;;;;;;13.95;12.55;;;;;;;-142.91;100.00;56616.03;5029129;28;20225;-68
2022/08/22 04:08:58;;;;;;;18.13;13.10;;;;;;;-142.91;100.00;56616.03;5029161;28;20206;-68
2022/08/22 04:11:48;;;;;;;14.20;12.82;;;;;;;-142.91;100.00;56616.03;5028610;28;20865;-67
2022/08/22 04:14:49;;;;;;;14.85;12.23;;;;;;;-142.91;100.00;56616.03;5029493;28;20210;-67
2022/08/22 04:17:56;;;;;;;13.23;11.85;;;;;;;-142.91;100.00;56616.03;4982485;28;20749;-67
2022/08/22 04:21:09;;;;;;;13.07;11.88;;;;;;;-142.91;100.00;56616.03;5029502;28;20202;-67
2022/08/22 04:24:02;;;;;;;13.43;12.05;;;;;;;-142.91;100.00;56616.03;5020842;28;20267;-67
2022/08/22 04:26:37;;;;;;;15.93;12.13;;;;;;;-142.91;100.00;56616.03;5032328;28;20414;-68
2022/08/22 04:29:08;;;;;;;12.75;11.52;;;;;;;-142.91;100.00;56616.03;5033181;28;20716;-67
2022/08/22 04:31:45;;;;;;;13.82;12.52;;;;;;;-142.91;100.00;56616.03;5031314;28;20271;-68
2022/08/22 04:34:21;;;;;;;15.60;12.18;;;;;;;-142.91;100.00;56616.03;5033251;28;20297;-67
2022/08/22 04:36:55;;;;;;;17.67;13.63;;;;;;;-142.91;100.00;56616.03;5033271;28;20239;-67
2022/08/22 04:39:29;;;;;;;12.50;11.05;;;;;;;-142.91;100.00;56616.03;5032574;28;20232;-68
2022/08/22 04:41:59;;;;;;;12.75;11.23;;;;;;;-142.91;100.00;56616.03;5030889;28;20210;-68
2022/08/22 04:44:35;;;;;;;16.00;11.75;;;;;;;-142.91;100.00;56616.03;5032431;28;20236;-69
2022/08/22 04:47:07;;;;;;;13.32;11.43;;;;;;;-142.91;100.00;56616.03;5033057;28;20202;-68
2022/08/22 04:49:42;;;;;;;15.60;11.80;;;;;;;-142.91;100.00;56616.03;5033387;28;20198;-69
2022/08/22 04:52:18;;;;;;;12.65;11.35;;;;;;;-142.91;100.00;56616.03;5031802;28;20725;-67
2022/08/22 04:55:00;;;;;;;11.98;10.80;;;;;;;-142.91;100.00;56616.03;5033638;28;20220;-68
2022/08/22 04:57:36;;;;;;;17.73;10.70;;;;;;;-142.91;100.00;56616.03;5032505;28;20272;-68
2022/08/22 05:00:08;;;;;;;13.25;11.90;;;;;;;-142.91;100.00;56616.03;5032641;28;20640;-67
2022/08/22 05:02:38;;;;;;;12.27;11.18;;;;;;;-142.91;100.00;56616.03;5030833;28;20249;-68
2022/08/22 05:05:13;;;;;;;11.50;10.57;;;;;;;-142.91;100.00;56616.03;5031830;28;20210;-68
2022/08/22 05:07:44;;;;;;;11.63;10.63;;;;;;;-142.91;100.00;56616.03;5033109;28;20823;-68
2022/08/22 05:10:17;;;;;;;13.80;11.60;;;;;;;-142.91;100.00;56616.03;5033118;28;20228;-67
2022/08/22 05:12:48;;;;;;;13.65;11.00;;;;;;;-142.91;100.00;56616.03;5031478;28;20284;-67
2022/08/22 05:15:19;;;;;;;11.93;10.68;;;;;;;-142.91;100.00;56616.03;5034238;28;20217;-68
2022/08/22 05:17:48;;;;;;;12.25;10.95;;;;;;;-142.91;100.00;56616.03;5032057;28;21110;-67
2022/08/22 05:20:25;;;;;;;12.88;10.90;;;;;;;-142.91;100.00;56616.03;5031235;28;20206;-67
2022/08/22 05:22:56;;;;;;;12.52;11.10;;;;;;;-142.91;100.00;56616.03;5032343;28;20329;-67
2022/08/22 05:25:28;;;;;;;14.07;11.52;;;;;;;-142.91;100.00;56616.03;5032203;28;20252;-68
2022/08/22 05:28:06;;;;;;;12.25;10.90;;;;;;;-142.91;100.00;56616.03;5032325;28;20203;-69
2022/08/22 05:30:34;;;;;;;12.05;10.85;;;;;;;-142.91;100.00;56616.03;5031551;28;20205;-67
2022/08/22 05:33:12;;;;;;;15.30;11.48;;;;;;;-142.91;100.00;56616.03;5031157;28;20229;-67
2022/08/22 05:35:47;;;;;;;12.35;11.15;;;;;;;-142.91;100.00;56616.03;5030598;28;20228;-67
2022/08/22 05:38:17;;;;;;;15.15;12.75;;;;;;;-142.91;100.00;56616.03;5030809;28;20209;-67
2022/08/22 05:40:49;;;;;;;13.63;12.32;;;;;;;-142.91;100.00;56616.03;5031822;28;21454;-67
2022/08/22 05:43:18;;;;;;;13.13;11.82;;;;;;;-142.91;100.00;56616.03;5031535;28;20194;-67
2022/08/22 05:45:48;;;;;;;13.35;12.15;;;;;;;-142.91;100.00;56616.03;5031715;28;20205;-67
2022/08/22 05:48:20;;;;;;;12.20;11.13;;;;;;;-142.91;100.00;56616.03;5032036;28;20278;-67
2022/08/22 05:50:53;;;;;;;13.63;12.00;;;;;;;-142.91;100.00;56616.03;5031767;28;20206;-69
2022/08/22 05:53:30;;;;;;;13.70;12.30;;;;;;;-142.91;100.00;56616.03;5031871;28;20257;-68
2022/08/22 05:56:01;;;;;;;13.68;12.38;;;;;;;-142.91;100.00;56616.03;5031176;28;20212;-68
2022/08/22 05:58:51;;;;;;;12.15;10.93;;;;;;;-142.91;100.00;56616.03;5032108;28;20237;-67
2022/08/22 06:01:32;;;;;;;15.45;11.57;;;;;;;-142.91;100.00;56616.03;5026187;28;20339;-68
2022/08/22 06:04:11;;;;;;;13.38;11.55;;;;;;;-142.91;100.00;56616.03;5031204;28;20275;-67
2022/08/22 06:06:43;;;;;;;13.15;11.75;;;;;;;-142.91;100.00;56616.03;5032480;28;20217;-67
2022/08/22 06:09:19;;;;;;;13.90;11.90;;;;;;;-142.91;100.00;56616.03;5032008;28;20320;-67
2022/08/22 06:11:53;;;;;;;13.85;12.48;;;;;;;-142.91;100.00;56616.03;5030631;28;20206;-67
2022/08/22 06:14:29;;;;;;;13.73;12.52;;;;;;;-142.91;100.00;56616.03;5031735;28;20319;-68
2022/08/22 06:17:04;;;;;;;14.07;11.55;;;;;;;-142.91;100.00;56616.03;5030208;28;20210;-70
2022/08/22 06:19:35;;;;;;;12.82;11.63;;;;;;;-142.91;100.00;56616.03;5031311;28;20221;-67
2022/08/22 06:22:05;;;;;;;13.05;11.77;;;;;;;-142.91;100.00;56616.03;5029994;28;20675;-67
2022/08/22 06:24:36;;;;;;;17.90;11.38;;;;;;;-142.91;100.00;56616.03;5030530;28;21379;-68
2022/08/22 06:27:08;;;;;;;14.07;12.75;;;;;;;-142.91;100.00;56616.03;5029937;28;20708;-67
2022/08/22 06:29:37;;;;;;;13.05;11.68;;;;;;;-142.91;100.00;56616.03;5031653;28;20263;-68
2022/08/22 06:32:12;;;;;;;17.38;11.73;;;;;;;-142.91;100.00;56616.03;5030783;28;22942;-68
2022/08/22 06:34:42;;;;;;;11.68;10.57;;;;;;;-142.91;100.00;56616.03;5031194;28;20256;-68
2022/08/22 06:37:17;;;;;;;10.77;9.88;;;;;;;-142.91;100.00;56616.03;5030990;28;20232;-68
2022/08/22 06:39:48;;;;;;;11.80;10.60;;;;;;;-142.91;100.00;56616.03;5030910;28;20679;-68
2022/08/22 06:42:18;;;;;;;12.75;10.02;;;;;;;-142.91;100.00;56616.03;5030350;28;20206;-68
2022/08/22 06:44:50;;;;;;;11.73;10.15;;;;;;;-142.91;100.00;56616.03;5030650;28;20692;-68
2022/08/22 06:47:22;;;;;;;11.25;9.40;;;;;;;-142.91;100.00;56616.03;5029160;28;21061;-68
2022/08/22 06:49:52;;;;;;;12.63;8.70;;;;;;;-142.91;100.00;56616.03;5030590;28;20213;-68
2022/08/22 06:52:23;;;;;;;9.35;8.55;;;;;;;-142.91;100.00;56616.03;5030932;28;20733;-67
2022/08/22 06:54:57;;;;;;;10.32;9.50;;;;;;;-142.91;100.00;56616.03;5029611;28;20228;-69
2022/08/22 06:57:29;;;;;;;10.15;9.25;;;;;;;-142.91;100.00;56616.03;5028453;28;20214;-69
2022/08/22 06:59:57;;;;;;;9.15;8.40;;;;;;;-142.91;100.00;56616.03;5029000;28;20267;-68
2022/08/22 07:02:29;;;;;;;10.82;9.68;;;;;;;-142.91;100.00;56616.03;5027594;28;20711;-68
2022/08/22 07:04:56;;;;;;;11.77;10.55;;;;;;;-142.91;100.00;56616.03;5028593;28;20199;-69
2022/08/22 07:07:27;;;;;;;10.35;9.38;;;;;;;-142.91;100.00;56616.03;5028113;28;20210;-68
2022/08/22 07:09:56;;;;;;;10.77;9.82;;;;;;;-142.91;100.00;56616.03;5029695;28;20263;-68
2022/08/22 07:12:29;;;;;;;9.68;8.82;;;;;;;-142.91;100.00;56616.03;5027785;28;20735;-68
2022/08/22 07:15:00;;;;;;;10.00;8.48;;;;;;;-142.91;100.00;56616.03;5030683;28;20821;-67
2022/08/22 07:17:31;;;;;;;9.43;8.73;;;;;;;-142.91;100.00;56616.03;5030633;28;20206;-68
2022/08/22 07:20:06;;;;;;;10.32;8.70;;;;;;;-142.91;100.00;56616.03;5029074;28;20213;-68
2022/08/22 07:22:36;;;;;;;10.30;9.27;;;;;;;-142.91;100.00;56616.03;5028728;28;20205;-68
2022/08/22 07:25:09;;;;;;;14.65;10.55;;;;;;;-142.91;100.00;56616.03;5030699;28;20199;-68
2022/08/22 07:27:47;;;;;;;10.52;8.70;;;;;;;-142.91;100.00;56616.03;5030413;28;20209;-68
2022/08/22 07:30:16;;;;;;;14.23;8.85;;;;;;;-142.91;100.00;56616.03;5029349;28;20214;-68
2022/08/22 07:32:51;;;;;;;9.57;8.73;;;;;;;-142.91;100.00;56616.03;5028968;28;20829;-68
2022/08/22 07:35:22;;;;;;;12.50;10.18;;;;;;;-142.91;100.00;56616.03;5029384;28;20768;-68
2022/08/22 07:37:56;;;;;;;13.35;11.50;;;;;;;-142.91;100.00;56616.03;5029039;28;20206;-68
2022/08/22 07:40:30;;;;;;;12.10;8.93;;;;;;;-142.91;100.00;56616.03;5030115;28;20675;-69
2022/08/22 07:43:03;;;;;;;11.10;9.95;;;;;;;-142.91;100.00;56616.03;5030074;28;21618;-69
2022/08/22 07:45:37;;;;;;;11.25;10.07;;;;;;;-142.91;100.00;56616.03;5030011;28;20209;-69
2022/08/22 07:48:15;;;;;;;10.63;9.77;;;;;;;-142.91;100.00;56616.03;5029141;28;20781;-68
2022/08/22 07:50:51;;;;;;;12.48;8.80;;;;;;;-142.91;100.00;56616.03;5006771;28;20206;-68
2022/08/22 07:53:26;;;;;;;10.52;9.23;;;;;;;-142.91;100.00;56616.03;5029024;28;22112;-68
2022/08/22 07:55:56;;;;;;;9.88;8.90;;;;;;;-142.91;100.00;56616.03;5029825;28;20286;-68
2022/08/22 07:58:26;;;;;;;10.27;9.23;;;;;;;-142.91;100.00;56616.03;5029745;28;20206;-69
2022/08/22 08:00:54;;;;;;;9.85;8.55;;;;;;;-142.91;100.00;56616.03;5032315;28;22474;-67
2022/08/22 08:03:23;;;;;;;33.88;25.88;;;;;;;-142.91;100.00;56616.03;5031012;28;20241;-68
2022/08/22 08:05:50;;;;;;;20.30;16.63;;;;;;;-142.91;100.00;56616.03;5033695;28;20231;-66
2022/08/22 08:08:24;;;;;;;70.30;45.40;;;;;;;-142.91;100.00;56616.03;5035256;28;20924;-66
2022/08/22 08:10:54;;;;;;;18.88;13.02;;;;;;;-142.91;100.00;56616.03;5034676;28;20251;-67
2022/08/22 08:13:26;;;;;;;15.32;10.88;;;;;;;-142.91;100.00;56616.03;5032018;28;21120;-67
2022/08/22 08:15:54;;;;;;;26.52;21.90;;;;;;;-142.91;100.00;56616.03;5034524;28;21049;-68
2022/08/22 08:18:25;;;;;;;18.65;13.38;;;;;;;-142.91;100.00;56616.03;5034540;28;20366;-67
2022/08/22 08:20:54;;;;;;;18.13;12.23;;;;;;;-142.91;100.00;56616.03;5032569;28;20256;-68
2022/08/22 08:23:23;;;;;;;12.23;9.93;;;;;;;-142.91;100.00;56616.03;5032729;28;20203;-69
2022/08/22 08:26:00;;;;;;;13.27;11.32;;;;;;;-142.91;100.00;56616.03;5031385;28;20212;-68
2022/08/22 08:28:36;;;;;;;10.65;9.52;;;;;;;-142.91;100.00;56616.03;5032952;28;20268;-68
2022/08/22 08:31:13;;;;;;;11.43;9.60;;;;;;;-142.91;100.00;56616.03;5033002;28;20205;-68
2022/08/22 08:33:44;;;;;;;14.07;9.43;;;;;;;-142.91;100.00;56616.03;5032612;28;20222;-68
2022/08/22 08:36:33;;;;;;;10.50;9.60;;;;;;;-142.91;100.00;56616.03;5031256;28;20375;-68
2022/08/22 08:39:11;;;;;;;11.18;8.90;;;;;;;-142.91;100.00;56616.03;5030013;28;20294;-69
2022/08/22 08:41:56;;;;;;;9.70;8.88;;;;;;;-142.91;100.00;56616.03;5029424;28;20458;-68
2022/08/22 08:44:42;;;;;;;12.13;10.15;;;;;;;-142.91;100.00;56616.03;5032279;28;20256;-68
2022/08/22 08:47:31;;;;;;;10.30;9.27;;;;;;;-142.91;100.00;56616.03;5030751;28;20202;-67
2022/08/22 08:50:27;;;;;;;10.25;8.95;;;;;;;-142.91;100.00;56616.03;5026872;28;20237;-68
2022/08/22 08:53:23;;;;;;;10.57;9.60;;;;;;;-142.91;100.00;56616.03;5032236;28;20635;-68
2022/08/22 08:55:57;;;;;;;13.40;8.15;;;;;;;-142.91;100.00;56616.03;5031650;28;20202;-68
2022/08/22 08:58:42;;;;;;;9.02;8.40;;;;;;;-142.91;100.00;56616.03;5032515;28;20213;-68
2022/08/22 09:01:28;;;;;;;9.57;8.85;;;;;;;-142.91;100.00;56616.03;5031285;28;20735;-69
2022/08/22 09:04:27;;;;;;;11.57;9.35;;;;;;;-142.91;100.00;56616.03;5032475;28;20652;-68
2022/08/22 09:07:32;;;;;;;10.57;9.23;;;;;;;-142.91;100.00;56616.03;5033058;28;20217;-68
2022/08/22 09:10:21;;;;;;;11.05;10.05;;;;;;;-142.91;100.00;56616.03;5024490;28;20203;-68
2022/08/22 09:13:06;;;;;;;15.45;10.10;;;;;;;-142.91;100.00;56616.03;5031484;28;20202;-69
2022/08/22 09:16:00;;;;;;;13.55;8.95;;;;;;;-142.91;100.00;56616.03;5031953;28;21460;-68
2022/08/22 09:18:42;;;;;;;13.80;8.77;;;;;;;-142.91;100.00;56616.03;5030220;28;20210;-67
2022/08/22 09:21:27;;;;;;;10.18;9.13;;;;;;;-142.91;100.00;56616.03;5030982;28;20252;-68
2022/08/22 09:24:24;;;;;;;11.35;9.57;;;;;;;-142.91;100.00;56616.03;5026095;28;20205;-68
2022/08/22 09:26:55;;;;;;;10.68;9.63;;;;;;;-142.91;100.00;56616.03;5023767;28;20666;-68
2022/08/22 09:29:48;;;;;;;11.55;10.45;;;;;;;-142.91;100.00;56616.03;5029419;28;20587;-68
2022/08/22 09:32:22;;;;;;;10.68;9.57;;;;;;;-142.91;100.00;56616.03;5022298;28;20287;-69
2022/08/22 09:35:02;;;;;;;12.60;10.20;;;;;;;-142.91;100.00;56616.03;5028536;28;20720;-69
2022/08/22 09:37:41;;;;;;;18.63;14.45;;;;;;;-142.91;100.00;56616.03;5030021;28;20628;-69
2022/08/22 09:40:15;;;;;;;13.05;9.77;;;;;;;-142.91;100.00;56616.03;5030077;28;20623;-68
2022/08/22 09:42:54;;;;;;;13.20;10.05;;;;;;;-142.91;100.00;56616.03;5027373;28;20206;-69
2022/08/22 09:45:41;;;;;;;10.93;9.63;;;;;;;-142.91;100.00;56616.03;5027219;28;20603;-70
2022/08/22 09:48:21;;;;;;;11.77;10.35;;;;;;;-142.91;100.00;56616.03;5031535;28;20215;-68
2022/08/22 09:50:57;;;;;;;10.60;9.05;;;;;;;-142.91;100.00;56616.03;5024428;28;20768;-68
2022/08/22 09:53:42;;;;;;;9.88;9.07;;;;;;;-142.91;100.00;56616.03;5025735;28;20209;-68
2022/08/22 09:56:13;;;;;;;10.63;9.45;;;;;;;-142.91;100.00;56616.03;5027072;28;20234;-68
2022/08/22 09:58:47;;;;;;;11.25;10.25;;;;;;;-142.91;100.00;56616.03;5027576;28;20210;-69
2022/08/22 10:01:27;;;;;;;8.40;7.70;;;;;;;-142.91;100.00;56616.03;5027360;28;22427;-68
2022/08/22 10:04:36;;;;;;;9.73;8.82;;;;;;;-142.91;100.00;56616.03;5026994;28;20202;-68
2022/08/22 10:07:13;;;;;;;9.77;9.07;;;;;;;-142.91;100.00;56616.03;5011117;28;20226;-68
2022/08/22 10:09:49;;;;;;;11.45;9.00;;;;;;;-142.91;100.00;56616.03;5025623;28;20198;-68
2022/08/22 10:12:25;;;;;;;10.77;9.70;;;;;;;-142.91;100.00;56616.03;5024520;28;20202;-69
2022/08/22 10:15:05;;;;;;;11.77;8.93;;;;;;;-142.91;100.00;56616.03;5024602;28;20229;-67
2022/08/22 10:17:36;;;;;;;9.90;8.93;;;;;;;-142.91;100.00;56616.03;5028551;28;20206;-68
2022/08/22 10:20:16;;;;;;;11.75;9.23;;;;;;;-142.91;100.00;56616.03;5024793;28;20210;-68
2022/08/22 10:22:51;;;;;;;14.00;12.55;;;;;;;-142.91;100.00;56616.03;5027779;28;20217;-68
2022/08/22 10:25:32;;;;;;;38.05;31.30;;;;;;;-142.91;100.00;56616.03;5028879;28;20206;-68
2022/08/22 10:28:10;;;;;;;12.32;9.32;;;;;;;-142.91;100.00;56616.03;5028525;28;20206;-68
2022/08/22 10:30:47;;;;;;;45.25;35.45;;;;;;;-142.91;100.00;56616.03;5029180;28;20508;-68
2022/08/22 10:33:24;;;;;;;51.47;39.72;;;;;;;-142.91;100.00;56616.03;5027554;28;20577;-68
2022/08/22 10:36:01;;;;;;;17.38;14.57;;;;;;;-142.91;100.00;56616.03;5028365;28;20233;-68
2022/08/22 10:38:31;;;;;;;23.80;19.30;;;;;;;-142.91;100.00;56616.03;5029299;28;20202;-69
2022/08/22 10:41:05;;;;;;;27.40;24.38;;;;;;;-142.91;100.00;56616.03;5027905;28;20287;-69
2022/08/22 10:43:40;;;;;;;16.75;15.05;;;;;;;-142.91;100.00;56616.03;5028624;28;20229;-69
2022/08/22 10:46:13;;;;;;;11.70;10.63;;;;;;;-142.91;100.00;56616.03;5027720;28;20216;-68
2022/08/22 10:48:48;;;;;;;10.70;9.73;;;;;;;-142.91;100.00;56616.03;5028641;28;20743;-70
2022/08/22 10:51:28;;;;;;;14.75;12.43;;;;;;;-142.91;100.00;56616.03;5029101;28;20209;-68
2022/08/22 10:54:13;;;;;;;20.83;18.67;;;;;;;-142.91;100.00;56616.03;5027460;28;20202;-69
2022/08/22 10:56:44;;;;;;;35.00;27.17;;;;;;;-142.91;100.00;56616.03;5034703;28;20206;-68
2022/08/22 10:59:25;;;;;;;40.00;33.10;;;;;;;-142.91;100.00;56616.03;5034224;28;20659;-69
2022/08/22 11:02:06;;;;;;;33.28;28.75;;;;;;;-142.91;100.00;56616.03;5029002;28;20238;-69
2022/08/22 11:04:52;;;;;;;17.20;12.43;;;;;;;-142.91;100.00;56616.03;5029329;28;20291;-68
2022/08/22 11:07:43;;;;;;;16.42;13.10;;;;;;;-142.91;100.00;56616.03;5031551;28;20214;-69
2022/08/22 11:10:23;;;;;;;11.68;10.68;;;;;;;-142.91;100.00;56616.03;5033143;28;20599;-68
2022/08/22 11:13:05;;;;;;;10.38;9.40;;;;;;;-142.91;100.00;56616.03;5032648;28;20212;-68
2022/08/22 11:15:54;;;;;;;10.38;9.35;;;;;;;-142.91;100.00;56616.03;5033121;28;20225;-67
2022/08/22 11:18:33;;;;;;;10.88;9.80;;;;;;;-142.91;100.00;56616.03;5028382;28;20261;-68
2022/08/22 11:21:06;;;;;;;10.43;9.40;;;;;;;-142.91;100.00;56616.03;5028123;28;20733;-68
2022/08/22 11:23:44;;;;;;;10.40;9.48;;;;;;;-142.91;100.00;56616.03;5026840;28;20230;-70
2022/08/22 11:26:25;;;;;;;9.73;8.75;;;;;;;-142.91;100.00;56616.03;5026263;28;20236;-68
2022/08/22 11:29:10;;;;;;;11.77;10.68;;;;;;;-142.91;100.00;56616.03;5027711;28;20208;-68
2022/08/22 11:31:48;;;;;;;11.68;10.43;;;;;;;-142.91;100.00;56616.03;5026828;28;20230;-68
2022/08/22 11:34:34;;;;;;;11.18;10.30;;;;;;;-142.91;100.00;56616.03;5026711;28;20349;-70
2022/08/22 11:37:08;;;;;;;15.32;10.02;;;;;;;-142.91;100.00;56616.03;5027362;28;21551;-69
2022/08/22 11:39:43;;;;;;;11.20;9.48;;;;;;;-142.91;100.00;56616.03;5027919;28;20793;-70
2022/08/22 11:42:15;;;;;;;12.85;10.00;;;;;;;-142.91;100.00;56616.03;5027403;28;20271;-70
2022/08/22 11:44:47;;;;;;;11.07;10.00;;;;;;;-142.91;100.00;56616.03;5027606;28;20206;-70
2022/08/22 11:47:15;;;;;;;12.00;10.85;;;;;;;-142.91;100.00;56616.03;5026782;28;22763;-69
2022/08/22 11:49:56;;;;;;;14.93;10.85;;;;;;;-142.91;100.00;56616.03;5027965;28;20267;-69